sensor_id;sensor_type;location;lat;lon;timestamp;pressure;altitude;pressure_sealevel;temperature;humidity
42511;BME280;28141;51.120;17.114;2022-07-06T00:02:34;101842.62;;;29.53;41.86
42511;BME280;28141;51.120;17.114;2022-07-06T00:05:37;101845.69;;;29.52;42.29
42511;BME280;28141;51.120;17.114;2022-07-06T00:08:40;101844.83;;;29.51;41.62
42511;BME280;28141;51.120;17.114;2022-07-06T00:11:44;101855.15;;;29.51;41.90
42511;BME280;28141;51.120;17.114;2022-07-06T00:15:16;101848.34;;;29.47;41.81
42511;BME280;28141;51.120;17.114;2022-07-06T00:18:19;101848.59;;;29.45;42.01
42511;BME280;28141;51.120;17.114;2022-07-06T00:21:23;101855.26;;;29.44;41.96
42511;BME280;28141;51.120;17.114;2022-07-06T00:24:26;101854.65;;;29.42;41.39
42511;BME280;28141;51.120;17.114;2022-07-06T00:27:30;101853.84;;;29.42;42.23
42511;BME280;28141;51.120;17.114;2022-07-06T00:30:33;101854.31;;;29.38;42.10
42511;BME280;28141;51.120;17.114;2022-07-06T00:33:37;101856.25;;;29.38;41.35
42511;BME280;28141;51.120;17.114;2022-07-06T00:36:40;101850.02;;;29.36;41.87
42511;BME280;28141;51.120;17.114;2022-07-06T00:39:43;101845.77;;;29.33;41.94
42511;BME280;28141;51.120;17.114;2022-07-06T00:42:47;101852.45;;;29.32;42.20
42511;BME280;28141;51.120;17.114;2022-07-06T00:45:51;101848.80;;;29.32;41.82
42511;BME280;28141;51.120;17.114;2022-07-06T00:48:55;101841.80;;;29.29;42.11
42511;BME280;28141;51.120;17.114;2022-07-06T00:52:26;101843.97;;;29.27;42.19
42511;BME280;28141;51.120;17.114;2022-07-06T00:55:33;101836.94;;;29.25;41.75
42511;BME280;28141;51.120;17.114;2022-07-06T00:58:37;101837.18;;;29.23;42.37
42511;BME280;28141;51.120;17.114;2022-07-06T01:01:41;101847.48;;;29.23;41.94
42511;BME280;28141;51.120;17.114;2022-07-06T01:04:44;101845.78;;;29.22;42.31
42511;BME280;28141;51.120;17.114;2022-07-06T01:07:49;101845.45;;;29.18;42.59
42511;BME280;28141;51.120;17.114;2022-07-06T01:10:52;101840.11;;;29.17;42.31
42511;BME280;28141;51.120;17.114;2022-07-06T01:13:56;101843.98;;;29.16;42.74
42511;BME280;28141;51.120;17.114;2022-07-06T01:17:01;101839.49;;;29.15;41.95
42511;BME280;28141;51.120;17.114;2022-07-06T01:23:48;101847.62;;;29.04;42.60
42511;BME280;28141;51.120;17.114;2022-07-06T01:26:52;101842.66;;;29.07;42.46
42511;BME280;28141;51.120;17.114;2022-07-06T01:29:56;101837.93;;;29.07;42.66
42511;BME280;28141;51.120;17.114;2022-07-06T01:32:59;101837.08;;;29.07;42.28
42511;BME280;28141;51.120;17.114;2022-07-06T01:36:03;101837.08;;;29.07;42.67
42511;BME280;28141;51.120;17.114;2022-07-06T01:39:08;101831.50;;;29.07;42.61
42511;BME280;28141;51.120;17.114;2022-07-06T01:42:11;101839.02;;;29.06;42.61
42511;BME280;28141;51.120;17.114;2022-07-06T01:45:15;101837.08;;;29.07;42.58
42511;BME280;28141;51.120;17.114;2022-07-06T01:48:18;101835.62;;;29.04;42.66
42511;BME280;28141;51.120;17.114;2022-07-06T01:51:22;101837.55;;;29.03;42.74
42511;BME280;28141;51.120;17.114;2022-07-06T01:54:25;101838.88;;;29.01;43.17
42511;BME280;28141;51.120;17.114;2022-07-06T01:57:55;101840.23;;;28.98;42.73
42511;BME280;28141;51.120;17.114;2022-07-06T02:00:59;101840.70;;;28.95;42.85
42511;BME280;28141;51.120;17.114;2022-07-06T02:04:03;101841.80;;;28.94;43.04
42511;BME280;28141;51.120;17.114;2022-07-06T02:07:06;101851.26;;;28.93;42.79
42511;BME280;28141;51.120;17.114;2022-07-06T02:10:09;101851.49;;;28.92;43.09
42511;BME280;28141;51.120;17.114;2022-07-06T02:13:13;101855.38;;;28.91;43.10
42511;BME280;28141;51.120;17.114;2022-07-06T02:16:16;101851.97;;;28.89;42.56
42511;BME280;28141;51.120;17.114;2022-07-06T02:19:19;101853.09;;;28.88;43.32
42511;BME280;28141;51.120;17.114;2022-07-06T02:22:23;101843.87;;;28.87;43.13
42511;BME280;28141;51.120;17.114;2022-07-06T02:25:26;101842.16;;;28.86;43.29
42511;BME280;28141;51.120;17.114;2022-07-06T02:28:30;101826.02;;;28.88;42.71
42511;BME280;28141;51.120;17.114;2022-07-06T02:32:01;101834.89;;;28.85;42.97
42511;BME280;28141;51.120;17.114;2022-07-06T02:35:05;101837.06;;;28.83;42.94
42511;BME280;28141;51.120;17.114;2022-07-06T02:38:09;101834.28;;;28.83;43.08
42511;BME280;28141;51.120;17.114;2022-07-06T02:41:12;101850.16;;;28.83;43.21
42511;BME280;28141;51.120;17.114;2022-07-06T02:44:16;101846.52;;;28.82;42.95
42511;BME280;28141;51.120;17.114;2022-07-06T02:47:19;101855.12;;;28.81;43.32
42511;BME280;28141;51.120;17.114;2022-07-06T02:50:26;101845.05;;;28.80;42.94
42511;BME280;28141;51.120;17.114;2022-07-06T02:53:30;101839.71;;;28.78;43.10
42511;BME280;28141;51.120;17.114;2022-07-06T02:56:33;101847.84;;;28.80;43.45
42511;BME280;28141;51.120;17.114;2022-07-06T02:59:36;101849.54;;;28.81;43.44
42511;BME280;28141;51.120;17.114;2022-07-06T03:02:40;101839.23;;;28.81;43.58
42511;BME280;28141;51.120;17.114;2022-07-06T03:06:09;101842.26;;;28.80;43.02
42511;BME280;28141;51.120;17.114;2022-07-06T03:09:13;101836.68;;;28.80;43.04
42511;BME280;28141;51.120;17.114;2022-07-06T03:12:16;101833.66;;;28.81;42.92
42511;BME280;28141;51.120;17.114;2022-07-06T03:15:20;101831.96;;;28.80;42.85
42511;BME280;28141;51.120;17.114;2022-07-06T03:18:23;101833.66;;;28.81;42.82
42511;BME280;28141;51.120;17.114;2022-07-06T03:21:27;101833.66;;;28.81;42.54
42511;BME280;28141;51.120;17.114;2022-07-06T03:24:30;101835.36;;;28.82;42.71
42511;BME280;28141;51.120;17.114;2022-07-06T03:27:34;101842.64;;;28.83;42.92
42511;BME280;28141;51.120;17.114;2022-07-06T03:30:38;101850.40;;;28.81;42.77
42511;BME280;28141;51.120;17.114;2022-07-06T03:33:42;101865.04;;;28.77;42.41
42511;BME280;28141;51.120;17.114;2022-07-06T03:36:45;101863.81;;;28.73;42.78
42511;BME280;28141;51.120;17.114;2022-07-06T03:40:15;101863.08;;;28.65;42.96
42511;BME280;28141;51.120;17.114;2022-07-06T03:43:19;101857.74;;;28.64;42.97
42511;BME280;28141;51.120;17.114;2022-07-06T03:46:22;101871.68;;;28.64;42.95
42511;BME280;28141;51.120;17.114;2022-07-06T03:49:26;101892.13;;;28.58;43.25
42511;BME280;28141;51.120;17.114;2022-07-06T03:52:30;101906.57;;;28.55;43.50
42511;BME280;28141;51.120;17.114;2022-07-06T03:55:34;101910.06;;;28.50;43.22
42511;BME280;28141;51.120;17.114;2022-07-06T03:58:37;101908.83;;;28.46;43.45
42511;BME280;28141;51.120;17.114;2022-07-06T04:01:41;101902.05;;;28.42;43.40
42511;BME280;28141;51.120;17.114;2022-07-06T04:04:44;101904.20;;;28.40;43.97
42511;BME280;28141;51.120;17.114;2022-07-06T04:07:48;101903.83;;;28.37;43.00
42511;BME280;28141;51.120;17.114;2022-07-06T04:10:52;101906.48;;;28.31;42.88
42511;BME280;28141;51.120;17.114;2022-07-06T04:13:55;101914.22;;;28.29;42.94
42511;BME280;28141;51.120;17.114;2022-07-06T04:17:25;101910.20;;;28.25;43.21
42511;BME280;28141;51.120;17.114;2022-07-06T04:20:40;101908.17;;;28.14;43.54
42511;BME280;28141;51.120;17.114;2022-07-06T04:23:44;101923.38;;;28.18;42.73
42511;BME280;28141;51.120;17.114;2022-07-06T04:26:47;101934.32;;;28.13;43.60
42511;BME280;28141;51.120;17.114;2022-07-06T04:29:53;101929.38;;;28.15;42.64
42511;BME280;28141;51.120;17.114;2022-07-06T04:32:56;101936.65;;;28.16;43.10
42511;BME280;28141;51.120;17.114;2022-07-06T04:36:00;101954.65;;;28.20;43.35
42511;BME280;28141;51.120;17.114;2022-07-06T04:39:03;101972.22;;;28.21;42.73
42511;BME280;28141;51.120;17.114;2022-07-06T04:42:07;101985.30;;;28.20;42.60
42511;BME280;28141;51.120;17.114;2022-07-06T04:45:37;101985.53;;;28.19;43.47
42511;BME280;28141;51.120;17.114;2022-07-06T04:48:41;101997.52;;;28.19;43.27
42511;BME280;28141;51.120;17.114;2022-07-06T04:51:45;102000.54;;;28.18;42.94
42511;BME280;28141;51.120;17.114;2022-07-06T04:54:48;101990.67;;;28.15;43.71
42511;BME280;28141;51.120;17.114;2022-07-06T04:57:52;101988.60;;;28.11;43.55
42511;BME280;28141;51.120;17.114;2022-07-06T05:00:56;101999.66;;;27.99;43.96
42511;BME280;28141;51.120;17.114;2022-07-06T05:03:59;101992.62;;;27.96;43.75
42511;BME280;28141;51.120;17.114;2022-07-06T05:07:03;101986.65;;;27.93;44.02
42511;BME280;28141;51.120;17.114;2022-07-06T05:10:10;101996.57;;;27.89;44.24
42511;BME280;28141;51.120;17.114;2022-07-06T05:13:14;101991.85;;;27.89;44.09
42511;BME280;28141;51.120;17.114;2022-07-06T05:16:48;101994.23;;;27.86;44.26
42511;BME280;28141;51.120;17.114;2022-07-06T05:19:52;101994.07;;;27.81;44.23
42511;BME280;28141;51.120;17.114;2022-07-06T05:22:56;101995.40;;;27.78;44.44
42511;BME280;28141;51.120;17.114;2022-07-06T05:26:00;101994.15;;;27.74;44.67
42511;BME280;28141;51.120;17.114;2022-07-06T05:29:03;101995.85;;;27.75;44.55
42511;BME280;28141;51.120;17.114;2022-07-06T05:32:07;101989.20;;;27.76;44.53
42511;BME280;28141;51.120;17.114;2022-07-06T05:35:11;101987.05;;;27.78;44.13
42511;BME280;28141;51.120;17.114;2022-07-06T05:38:15;101986.20;;;27.78;44.58
42511;BME280;28141;51.120;17.114;2022-07-06T05:41:19;101978.70;;;27.78;44.69
42511;BME280;28141;51.120;17.114;2022-07-06T05:44:22;101981.17;;;27.86;43.88
42511;BME280;28141;51.120;17.114;2022-07-06T05:47:26;101980.71;;;27.89;43.87
42511;BME280;28141;51.120;17.114;2022-07-06T05:51:08;101971.56;;;27.82;44.57
42511;BME280;28141;51.120;17.114;2022-07-06T05:54:11;101962.30;;;27.88;44.05
42511;BME280;28141;51.120;17.114;2022-07-06T05:57:14;101966.07;;;27.94;44.15
42511;BME280;28141;51.120;17.114;2022-07-06T06:00:18;101952.32;;;27.99;44.09
42511;BME280;28141;51.120;17.114;2022-07-06T06:03:21;101954.62;;;28.02;43.91
42511;BME280;28141;51.120;17.114;2022-07-06T06:06:28;101959.73;;;28.05;44.56
42511;BME280;28141;51.120;17.114;2022-07-06T06:09:34;101938.69;;;28.09;44.87
42511;BME280;28141;51.120;17.114;2022-07-06T06:12:39;101925.12;;;28.13;44.14
42511;BME280;28141;51.120;17.114;2022-07-06T06:15:43;101911.15;;;28.19;43.37
42511;BME280;28141;51.120;17.114;2022-07-06T06:18:46;101925.70;;;28.21;44.59
42511;BME280;28141;51.120;17.114;2022-07-06T06:22:18;101941.92;;;28.24;44.08
42511;BME280;28141;51.120;17.114;2022-07-06T06:25:28;101936.52;;;28.29;43.92
42511;BME280;28141;51.120;17.114;2022-07-06T06:28:32;101947.79;;;28.34;43.54
42511;BME280;28141;51.120;17.114;2022-07-06T06:31:35;101955.13;;;28.47;44.33
42511;BME280;28141;51.120;17.114;2022-07-06T06:34:41;102001.83;;;28.52;44.09
42511;BME280;28141;51.120;17.114;2022-07-06T06:37:47;102018.45;;;28.58;44.19
42511;BME280;28141;51.120;17.114;2022-07-06T06:40:51;102012.18;;;28.63;44.09
42511;BME280;28141;51.120;17.114;2022-07-06T06:43:56;102004.66;;;28.63;44.08
42511;BME280;28141;51.120;17.114;2022-07-06T06:47:00;102013.54;;;28.72;43.64
42511;BME280;28141;51.120;17.114;2022-07-06T06:50:33;102021.60;;;28.80;43.80
42511;BME280;28141;51.120;17.114;2022-07-06T06:53:36;102016.88;;;28.81;43.67
42511;BME280;28141;51.120;17.114;2022-07-06T06:56:40;102020.67;;;28.86;44.32
42511;BME280;28141;51.120;17.114;2022-07-06T06:59:43;102013.52;;;28.90;43.48
42511;BME280;28141;51.120;17.114;2022-07-06T07:02:47;102016.92;;;28.92;43.72
42511;BME280;28141;51.120;17.114;2022-07-06T07:05:51;102019.86;;;28.97;43.53
42511;BME280;28141;51.120;17.114;2022-07-06T07:08:55;102018.16;;;28.96;43.68
42511;BME280;28141;51.120;17.114;2022-07-06T07:11:59;102011.12;;;28.94;43.47
42511;BME280;28141;51.120;17.114;2022-07-06T07:15:03;102017.31;;;28.96;43.75
42511;BME280;28141;51.120;17.114;2022-07-06T07:18:07;102014.98;;;28.93;43.84
42511;BME280;28141;51.120;17.114;2022-07-06T07:21:11;102016.45;;;28.95;43.85
42511;BME280;28141;51.120;17.114;2022-07-06T07:24:40;102017.03;;;28.86;43.91
42511;BME280;28141;51.120;17.114;2022-07-06T07:27:44;102020.29;;;28.83;43.48
42511;BME280;28141;51.120;17.114;2022-07-06T07:30:48;102019.82;;;28.86;44.02
42511;BME280;28141;51.120;17.114;2022-07-06T07:33:52;102023.46;;;28.86;43.45
42511;BME280;28141;51.120;17.114;2022-07-06T07:36:59;102009.75;;;28.85;43.71
42511;BME280;28141;51.120;17.114;2022-07-06T07:40:04;102015.09;;;28.86;43.93
42511;BME280;28141;51.120;17.114;2022-07-06T07:43:09;102003.94;;;28.86;44.04
42511;BME280;28141;51.120;17.114;2022-07-06T07:46:12;102008.09;;;28.77;44.03
42511;BME280;28141;51.120;17.114;2022-07-06T07:49:16;102002.38;;;28.72;43.96
42511;BME280;28141;51.120;17.114;2022-07-06T07:52:20;102004.71;;;28.75;44.67
42511;BME280;28141;51.120;17.114;2022-07-06T07:55:49;101998.23;;;28.63;44.41
42511;BME280;28141;51.120;17.114;2022-07-06T07:58:53;102003.41;;;28.59;44.06
42511;BME280;28141;51.120;17.114;2022-07-06T08:01:57;102003.53;;;28.53;44.13
42511;BME280;28141;51.120;17.114;2022-07-06T08:05:00;102011.27;;;28.51;44.73
42511;BME280;28141;51.120;17.114;2022-07-06T08:08:04;102012.51;;;28.55;45.32
42511;BME280;28141;51.120;17.114;2022-07-06T08:11:08;102013.03;;;28.63;44.63
42511;BME280;28141;51.120;17.114;2022-07-06T08:14:13;102022.53;;;28.74;44.34
42511;BME280;28141;51.120;17.114;2022-07-06T08:17:17;102016.73;;;28.76;43.84
42511;BME280;28141;51.120;17.114;2022-07-06T08:20:21;102016.64;;;28.82;43.93
42511;BME280;28141;51.120;17.114;2022-07-06T08:23:24;102021.60;;;28.80;44.62
42511;BME280;28141;51.120;17.114;2022-07-06T08:26:28;102019.32;;;28.89;44.09
42511;BME280;28141;51.120;17.114;2022-07-06T08:30:00;102017.39;;;28.89;43.86
42511;BME280;28141;51.120;17.114;2022-07-06T08:33:04;102014.75;;;28.94;43.89
42511;BME280;28141;51.120;17.114;2022-07-06T08:36:07;102014.60;;;28.89;43.97
42511;BME280;28141;51.120;17.114;2022-07-06T08:39:11;102017.31;;;28.96;43.60
42511;BME280;28141;51.120;17.114;2022-07-06T08:42:16;102012.34;;;28.98;43.90
42511;BME280;28141;51.120;17.114;2022-07-06T08:45:20;102010.14;;;29.00;43.65
42511;BME280;28141;51.120;17.114;2022-07-06T08:48:24;102011.15;;;29.05;43.44
42511;BME280;28141;51.120;17.114;2022-07-06T08:51:28;101997.28;;;28.99;43.36
42511;BME280;28141;51.120;17.114;2022-07-06T08:54:32;102002.59;;;28.89;43.84
42511;BME280;28141;51.120;17.114;2022-07-06T08:57:36;102002.97;;;28.92;43.76
42511;BME280;28141;51.120;17.114;2022-07-06T09:01:11;102006.77;;;28.98;43.37
42511;BME280;28141;51.120;17.114;2022-07-06T09:04:16;102008.36;;;29.05;43.35
42511;BME280;28141;51.120;17.114;2022-07-06T09:07:21;101991.88;;;29.16;42.68
42511;BME280;28141;51.120;17.114;2022-07-06T09:10:25;102000.72;;;29.13;43.11
42511;BME280;28141;51.120;17.114;2022-07-06T09:13:29;101993.96;;;29.20;42.85
42511;BME280;28141;51.120;17.114;2022-07-06T09:16:33;102003.41;;;29.19;42.54
42511;BME280;28141;51.120;17.114;2022-07-06T09:19:37;101988.38;;;29.20;42.95
42511;BME280;28141;51.120;17.114;2022-07-06T09:22:41;101988.73;;;29.24;43.22
42511;BME280;28141;51.120;17.114;2022-07-06T09:25:48;101996.50;;;29.33;42.19
42511;BME280;28141;51.120;17.114;2022-07-06T09:28:56;101994.55;;;29.34;42.18
42511;BME280;28141;51.120;17.114;2022-07-06T09:32:26;101992.13;;;29.26;42.36
42511;BME280;28141;51.120;17.114;2022-07-06T09:35:35;101987.16;;;29.28;42.26
42511;BME280;28141;51.120;17.114;2022-07-06T09:38:39;101989.49;;;29.31;41.98
42511;BME280;28141;51.120;17.114;2022-07-06T09:41:42;101986.42;;;29.32;42.72
42511;BME280;28141;51.120;17.114;2022-07-06T09:44:47;101984.72;;;29.31;42.92
42511;BME280;28141;51.120;17.114;2022-07-06T09:47:51;101977.94;;;29.27;43.69
42511;BME280;28141;51.120;17.114;2022-07-06T09:51:00;101979.41;;;29.30;43.27
42511;BME280;28141;51.120;17.114;2022-07-06T09:54:09;101983.80;;;29.37;43.16
42511;BME280;28141;51.120;17.114;2022-07-06T09:57:39;101986.37;;;29.39;43.36
42511;BME280;28141;51.120;17.114;2022-07-06T10:00:43;101971.89;;;29.42;43.69
42511;BME280;28141;51.120;17.114;2022-07-06T10:03:47;101983.89;;;29.31;43.52
42511;BME280;28141;51.120;17.114;2022-07-06T10:06:52;102002.83;;;27.10;43.01
42511;BME280;28141;51.120;17.114;2022-07-06T10:09:56;101991.03;;;25.74;44.99
42511;BME280;28141;51.120;17.114;2022-07-06T10:13:00;101991.30;;;26.24;45.56
42511;BME280;28141;51.120;17.114;2022-07-06T10:16:05;101988.44;;;25.79;45.10
42511;BME280;28141;51.120;17.114;2022-07-06T10:19:09;101994.71;;;26.26;45.15
42511;BME280;28141;51.120;17.114;2022-07-06T10:22:14;101989.68;;;27.23;43.98
42511;BME280;28141;51.120;17.114;2022-07-06T10:25:49;101998.17;;;27.53;41.16
42511;BME280;28141;51.120;17.114;2022-07-06T10:28:54;102013.89;;;27.16;39.18
42511;BME280;28141;51.120;17.114;2022-07-06T10:31:59;102010.91;;;27.43;37.25
42511;BME280;28141;51.120;17.114;2022-07-06T10:35:06;101992.54;;;26.79;37.48
42511;BME280;28141;51.120;17.114;2022-07-06T10:38:10;101981.47;;;27.53;37.04
42511;BME280;28141;51.120;17.114;2022-07-06T10:41:14;101972.02;;;28.34;37.34
42511;BME280;28141;51.120;17.114;2022-07-06T10:44:22;101981.71;;;27.27;36.85
42511;BME280;28141;51.120;17.114;2022-07-06T10:47:29;101986.12;;;27.84;36.71
42511;BME280;28141;51.120;17.114;2022-07-06T10:51:02;101993.16;;;27.87;37.40
42511;BME280;28141;51.120;17.114;2022-07-06T10:54:09;101985.30;;;28.20;36.55
42511;BME280;28141;51.120;17.114;2022-07-06T10:57:14;101993.30;;;27.92;36.07
42511;BME280;28141;51.120;17.114;2022-07-06T11:00:22;101996.41;;;28.39;35.57
42511;BME280;28141;51.120;17.114;2022-07-06T11:03:35;102001.30;;;27.88;36.22
42511;BME280;28141;51.120;17.114;2022-07-06T11:06:39;101991.45;;;28.04;37.56
42511;BME280;28141;51.120;17.114;2022-07-06T11:13:29;102006.77;;;28.13;36.16
42511;BME280;28141;51.120;17.114;2022-07-06T11:17:21;101997.10;;;27.54;37.15
42511;BME280;28141;51.120;17.114;2022-07-06T11:22:59;101999.77;;;26.48;38.36
42511;BME280;28141;51.120;17.114;2022-07-06T11:26:03;101990.31;;;27.25;39.03
42511;BME280;28141;51.120;17.114;2022-07-06T11:29:08;101995.80;;;26.69;39.11
42511;BME280;28141;51.120;17.114;2022-07-06T11:32:13;102013.21;;;26.89;39.10
42511;BME280;28141;51.120;17.114;2022-07-06T11:35:43;102003.41;;;26.42;39.69
42511;BME280;28141;51.120;17.114;2022-07-06T11:38:47;102003.95;;;26.13;40.89
42511;BME280;28141;51.120;17.114;2022-07-06T11:41:52;102007.76;;;26.18;41.42
42511;BME280;28141;51.120;17.114;2022-07-06T11:44:57;102007.76;;;26.18;41.70
42511;BME280;28141;51.120;17.114;2022-07-06T11:48:10;102014.66;;;25.96;41.14
42511;BME280;28141;51.120;17.114;2022-07-06T11:51:14;102010.78;;;26.68;40.89
42511;BME280;28141;51.120;17.114;2022-07-06T11:54:21;102012.43;;;27.39;39.69
42511;BME280;28141;51.120;17.114;2022-07-06T11:57:24;102012.16;;;27.22;38.59
42511;BME280;28141;51.120;17.114;2022-07-06T12:04:11;102001.44;;;27.25;36.99
42511;BME280;28141;51.120;17.114;2022-07-06T12:07:16;102000.32;;;27.58;35.68
42511;BME280;28141;51.120;17.114;2022-07-06T12:13:40;101987.15;;;29.16;34.98
42511;BME280;28141;51.120;17.114;2022-07-06T12:17:14;101991.44;;;29.89;34.44
42511;BME280;28141;51.120;17.114;2022-07-06T12:20:19;101986.31;;;29.27;32.86
42511;BME280;28141;51.120;17.114;2022-07-06T12:23:22;101986.04;;;28.76;33.30
42511;BME280;28141;51.120;17.114;2022-07-06T12:27:39;101984.88;;;28.83;32.67
42511;BME280;28141;51.120;17.114;2022-07-06T12:30:45;101985.32;;;28.50;32.18
42511;BME280;28141;51.120;17.114;2022-07-06T12:33:58;102003.09;;;28.19;32.20
42511;BME280;28141;51.120;17.114;2022-07-06T12:37:08;101979.73;;;29.22;31.62
42511;BME280;28141;51.120;17.114;2022-07-06T12:40:13;101976.58;;;30.23;31.20
42511;BME280;28141;51.120;17.114;2022-07-06T12:47:05;101968.59;;;31.00;30.31
42511;BME280;28141;51.120;17.114;2022-07-06T12:50:11;101971.87;;;31.26;30.25
42511;BME280;28141;51.120;17.114;2022-07-06T12:53:25;101968.36;;;31.52;29.98
42511;BME280;28141;51.120;17.114;2022-07-06T12:56:29;101974.62;;;31.59;29.97
42511;BME280;28141;51.120;17.114;2022-07-06T12:59:38;101968.04;;;31.65;30.42
42511;BME280;28141;51.120;17.114;2022-07-06T13:02:45;101989.05;;;31.84;29.46
42511;BME280;28141;51.120;17.114;2022-07-06T13:09:32;101975.98;;;31.90;30.38
42511;BME280;28141;51.120;17.114;2022-07-06T13:12:42;101977.33;;;31.87;30.34
42511;BME280;28141;51.120;17.114;2022-07-06T13:15:46;101972.96;;;31.97;29.89
42511;BME280;28141;51.120;17.114;2022-07-06T13:18:49;101976.36;;;31.99;29.92
42511;BME280;28141;51.120;17.114;2022-07-06T13:21:53;101980.41;;;32.08;29.52
42511;BME280;28141;51.120;17.114;2022-07-06T13:24:56;101984.05;;;32.08;29.91
42511;BME280;28141;51.120;17.114;2022-07-06T13:28:00;101975.31;;;32.05;29.58
42511;BME280;28141;51.120;17.114;2022-07-06T13:31:30;101982.36;;;32.07;29.80
42511;BME280;28141;51.120;17.114;2022-07-06T13:34:34;101970.05;;;32.08;30.19
42511;BME280;28141;51.120;17.114;2022-07-06T13:37:40;101980.15;;;32.09;29.59
42511;BME280;28141;51.120;17.114;2022-07-06T13:40:45;101981.04;;;32.15;29.81
42511;BME280;28141;51.120;17.114;2022-07-06T13:43:49;101977.25;;;32.21;29.82
42511;BME280;28141;51.120;17.114;2022-07-06T13:46:52;101985.66;;;32.21;29.57
42511;BME280;28141;51.120;17.114;2022-07-06T13:49:56;101981.92;;;32.37;29.41
42511;BME280;28141;51.120;17.114;2022-07-06T13:52:59;101974.73;;;32.46;28.60
42511;BME280;28141;51.120;17.114;2022-07-06T13:56:03;101969.79;;;32.53;29.47
42511;BME280;28141;51.120;17.114;2022-07-06T13:59:32;101969.05;;;32.63;28.77
42511;BME280;28141;51.120;17.114;2022-07-06T14:02:35;101961.12;;;32.55;28.41
42511;BME280;28141;51.120;17.114;2022-07-06T14:05:39;101968.27;;;32.46;28.00
42511;BME280;28141;51.120;17.114;2022-07-06T14:08:42;101966.28;;;32.41;29.16
42511;BME280;28141;51.120;17.114;2022-07-06T14:11:46;101963.62;;;32.56;28.24
42511;BME280;28141;51.120;17.114;2022-07-06T14:18:55;101975.42;;;32.32;28.87
42511;BME280;28141;51.120;17.114;2022-07-06T14:21:59;101967.05;;;32.37;28.18
42511;BME280;28141;51.120;17.114;2022-07-06T14:25:03;101966.53;;;32.40;28.26
42511;BME280;28141;51.120;17.114;2022-07-06T14:28:10;101965.09;;;32.37;29.19
42511;BME280;28141;51.120;17.114;2022-07-06T14:31:16;101962.15;;;32.49;28.09
42511;BME280;28141;51.120;17.114;2022-07-06T14:34:20;101964.10;;;32.48;27.70
42511;BME280;28141;51.120;17.114;2022-07-06T14:37:23;101953.80;;;32.54;28.47
42511;BME280;28141;51.120;17.114;2022-07-06T14:40:27;101956.34;;;32.55;28.25
42511;BME280;28141;51.120;17.114;2022-07-06T14:43:55;101955.51;;;32.55;28.24
42511;BME280;28141;51.120;17.114;2022-07-06T14:46:59;101954.76;;;32.64;28.37
42511;BME280;28141;51.120;17.114;2022-07-06T14:50:03;101957.60;;;32.70;27.82
42511;BME280;28141;51.120;17.114;2022-07-06T14:53:07;101952.21;;;32.63;28.40
42511;BME280;28141;51.120;17.114;2022-07-06T14:56:11;101944.91;;;32.62;28.04
42511;BME280;28141;51.120;17.114;2022-07-06T14:59:14;101945.03;;;32.72;28.04
42511;BME280;28141;51.120;17.114;2022-07-06T15:02:18;101954.05;;;32.74;28.15
42511;BME280;28141;51.120;17.114;2022-07-06T15:05:22;101957.15;;;32.78;28.00
42511;BME280;28141;51.120;17.114;2022-07-06T15:08:25;101958.15;;;32.93;27.93
42511;BME280;28141;51.120;17.114;2022-07-06T15:11:54;101956.19;;;32.94;27.65
42511;BME280;28141;51.120;17.114;2022-07-06T15:14:58;101967.51;;;33.04;28.18
42511;BME280;28141;51.120;17.114;2022-07-06T15:18:01;101963.35;;;33.12;27.51
42511;BME280;28141;51.120;17.114;2022-07-06T15:21:04;101951.66;;;33.20;26.85
42511;BME280;28141;51.120;17.114;2022-07-06T15:24:08;101953.03;;;33.17;27.57
42511;BME280;28141;51.120;17.114;2022-07-06T15:27:12;101956.73;;;33.23;27.27
42511;BME280;28141;51.120;17.114;2022-07-06T15:30:16;101953.03;;;33.17;26.89
42511;BME280;28141;51.120;17.114;2022-07-06T15:33:19;101950.02;;;33.24;27.50
42511;BME280;28141;51.120;17.114;2022-07-06T15:36:23;101951.84;;;33.40;27.08
42511;BME280;28141;51.120;17.114;2022-07-06T15:39:26;101944.55;;;33.44;27.10
42511;BME280;28141;51.120;17.114;2022-07-06T15:42:30;101940.36;;;33.47;26.80
42511;BME280;28141;51.120;17.114;2022-07-06T15:45:33;101935.97;;;33.66;27.11
42511;BME280;28141;51.120;17.114;2022-07-06T15:48:37;101937.52;;;33.84;26.81
42511;BME280;28141;51.120;17.114;2022-07-06T15:51:41;101934.20;;;33.97;26.54
42511;BME280;28141;51.120;17.114;2022-07-06T15:55:13;101940.74;;;34.13;26.64
42511;BME280;28141;51.120;17.114;2022-07-06T15:58:16;101934.87;;;34.24;26.49
42511;BME280;28141;51.120;17.114;2022-07-06T16:01:20;101941.38;;;34.30;26.39
42511;BME280;28141;51.120;17.114;2022-07-06T16:04:24;101942.23;;;34.30;25.83
42511;BME280;28141;51.120;17.114;2022-07-06T16:07:29;101939.75;;;34.39;26.23
42511;BME280;28141;51.120;17.114;2022-07-06T16:10:33;101942.59;;;34.49;26.00
42511;BME280;28141;51.120;17.114;2022-07-06T16:13:36;101943.45;;;34.60;25.93
42511;BME280;28141;51.120;17.114;2022-07-06T16:16:41;101936.41;;;34.72;26.10
42511;BME280;28141;51.120;17.114;2022-07-06T16:19:45;101930.01;;;34.82;25.92
42511;BME280;28141;51.120;17.114;2022-07-06T16:22:49;101934.23;;;34.90;25.56
42511;BME280;28141;51.120;17.114;2022-07-06T16:26:21;101939.02;;;34.99;25.79
42511;BME280;28141;51.120;17.114;2022-07-06T16:29:25;101935.89;;;35.16;25.93
42511;BME280;28141;51.120;17.114;2022-07-06T16:32:29;101944.36;;;35.21;25.75
42511;BME280;28141;51.120;17.114;2022-07-06T16:35:33;101932.55;;;35.34;25.78